2020/01/26 16:00 VVNB 261600Z 07005KT 030V090 CAVOK 16/09 Q1018 NOSIG
2020/01/26 16:00 VVDN 261600Z 32003KT 9999 SCT013 BKN050 22/16 Q1015 NOSIG
2020/01/26 16:00 VVTS 261600Z 15007KT 120V210 9999 SCT017 26/23 Q1011 NOSIG
2020/01/26 16:00 VVPB 261600Z 26004KT 8000 SCT013 BKN030 18/17 Q1017 NOSIG

Powered by MinhViet JSC.